sensor_id;sensor_type;location;lat;lon;timestamp;pressure;altitude;pressure_sealevel;temperature;humidity
18527;BME280;9393;42.158;24.748;2023-02-19T00:01:19;99709.75;;;14.33;42.31
18527;BME280;9393;42.158;24.748;2023-02-19T00:04:23;99706.84;;;14.52;42.02
18527;BME280;9393;42.158;24.748;2023-02-19T00:07:27;99715.38;;;14.46;42.28
18527;BME280;9393;42.158;24.748;2023-02-19T00:10:30;99704.56;;;14.41;42.41
18527;BME280;9393;42.158;24.748;2023-02-19T00:13:36;99704.47;;;14.25;42.57
18527;BME280;9393;42.158;24.748;2023-02-19T00:16:40;99700.75;;;14.35;42.30
18527;BME280;9393;42.158;24.748;2023-02-19T00:19:44;99703.44;;;14.01;43.17
18527;BME280;9393;42.158;24.748;2023-02-19T00:22:48;99693.31;;;14.06;42.87
18527;BME280;9393;42.158;24.748;2023-02-19T00:25:52;99699.84;;;13.60;43.83
18527;BME280;9393;42.158;24.748;2023-02-19T00:28:58;99694.84;;;13.83;43.35
18527;BME280;9393;42.158;24.748;2023-02-19T00:32:03;99694.84;;;13.83;43.42
18527;BME280;9393;42.158;24.748;2023-02-19T00:35:07;99685.88;;;13.86;43.41
18527;BME280;9393;42.158;24.748;2023-02-19T00:38:11;99687.44;;;13.71;43.77
18527;BME280;9393;42.158;24.748;2023-02-19T00:41:16;99678.47;;;13.39;44.61
18527;BME280;9393;42.158;24.748;2023-02-19T00:44:24;99661.69;;;13.24;45.01
18527;BME280;9393;42.158;24.748;2023-02-19T00:47:28;99659.56;;;13.20;45.21
18527;BME280;9393;42.158;24.748;2023-02-19T00:50:31;99662.88;;;13.38;44.73
18527;BME280;9393;42.158;24.748;2023-02-19T00:53:35;99675.09;;;13.55;44.33
18527;BME280;9393;42.158;24.748;2023-02-19T00:56:39;99661.22;;;13.62;44.43
18527;BME280;9393;42.158;24.748;2023-02-19T00:59:44;99657.47;;;13.73;43.76
18527;BME280;9393;42.158;24.748;2023-02-19T01:02:48;99657.97;;;13.69;44.09
18527;BME280;9393;42.158;24.748;2023-02-19T01:05:52;99663.22;;;13.77;43.84
18527;BME280;9393;42.158;24.748;2023-02-19T01:08:57;99654.53;;;13.76;43.69
18527;BME280;9393;42.158;24.748;2023-02-19T01:12:00;99655.34;;;13.77;43.88
18527;BME280;9393;42.158;24.748;2023-02-19T01:15:07;99645.88;;;13.84;43.79
18527;BME280;9393;42.158;24.748;2023-02-19T01:18:11;99643.19;;;13.59;44.33
18527;BME280;9393;42.158;24.748;2023-02-19T01:21:17;99645.47;;;13.62;44.16
18527;BME280;9393;42.158;24.748;2023-02-19T01:24:21;99655.22;;;13.78;43.88
18527;BME280;9393;42.158;24.748;2023-02-19T01:27:25;99656.53;;;13.82;43.91
18527;BME280;9393;42.158;24.748;2023-02-19T01:30:33;99655.03;;;13.72;44.06
18527;BME280;9393;42.158;24.748;2023-02-19T01:33:36;99659.84;;;13.50;44.21
18527;BME280;9393;42.158;24.748;2023-02-19T01:36:40;99658.06;;;13.59;43.90
18527;BME280;9393;42.158;24.748;2023-02-19T01:39:44;99663.50;;;13.57;44.13
18527;BME280;9393;42.158;24.748;2023-02-19T01:42:48;99645.28;;;13.48;44.42
18527;BME280;9393;42.158;24.748;2023-02-19T01:45:53;99649.09;;;13.61;43.93
18527;BME280;9393;42.158;24.748;2023-02-19T01:48:59;99653.88;;;13.74;43.70
18527;BME280;9393;42.158;24.748;2023-02-19T01:52:09;99641.84;;;13.55;44.35
18527;BME280;9393;42.158;24.748;2023-02-19T01:55:16;99639.03;;;13.41;44.42
18527;BME280;9393;42.158;24.748;2023-02-19T01:58:20;99638.28;;;13.23;45.06
18527;BME280;9393;42.158;24.748;2023-02-19T02:01:25;99645.25;;;13.40;45.14
18527;BME280;9393;42.158;24.748;2023-02-19T02:04:30;99645.44;;;13.46;44.70
18527;BME280;9393;42.158;24.748;2023-02-19T02:07:34;99649.19;;;13.52;44.50
18527;BME280;9393;42.158;24.748;2023-02-19T02:10:56;99644.00;;;13.60;44.31
18527;BME280;9393;42.158;24.748;2023-02-19T02:14:02;99647.31;;;13.70;44.12
18527;BME280;9393;42.158;24.748;2023-02-19T02:17:14;99649.47;;;13.33;45.10
18527;BME280;9393;42.158;24.748;2023-02-19T02:20:45;99640.75;;;13.58;44.57
18527;BME280;9393;42.158;24.748;2023-02-19T02:24:10;99649.91;;;13.62;44.29
18527;BME280;9393;42.158;24.748;2023-02-19T02:27:27;99654.34;;;13.61;44.53
18527;BME280;9393;42.158;24.748;2023-02-19T02:30:41;99657.75;;;13.62;44.27
18527;BME280;9393;42.158;24.748;2023-02-19T02:33:50;99662.34;;;13.60;44.08
18527;BME280;9393;42.158;24.748;2023-02-19T02:36:57;99662.59;;;13.41;44.67
18527;BME280;9393;42.158;24.748;2023-02-19T02:40:02;99660.28;;;13.38;44.76
18527;BME280;9393;42.158;24.748;2023-02-19T02:43:07;99656.50;;;13.32;44.89
18527;BME280;9393;42.158;24.748;2023-02-19T02:46:15;99661.97;;;13.47;44.61
18527;BME280;9393;42.158;24.748;2023-02-19T02:49:23;99660.66;;;12.91;46.09
18527;BME280;9393;42.158;24.748;2023-02-19T02:52:27;99657.25;;;13.17;45.39
18527;BME280;9393;42.158;24.748;2023-02-19T02:55:47;99667.44;;;13.28;45.12
18527;BME280;9393;42.158;24.748;2023-02-19T02:58:52;99677.91;;;13.28;44.99
18527;BME280;9393;42.158;24.748;2023-02-19T03:02:03;99679.34;;;13.22;45.27
18527;BME280;9393;42.158;24.748;2023-02-19T03:05:16;99684.31;;;12.82;46.15
18527;BME280;9393;42.158;24.748;2023-02-19T03:08:41;99689.78;;;12.96;46.00
18527;BME280;9393;42.158;24.748;2023-02-19T03:11:49;99686.63;;;12.67;46.52
18527;BME280;9393;42.158;24.748;2023-02-19T03:15:15;99679.97;;;12.55;47.11
18527;BME280;9393;42.158;24.748;2023-02-19T03:18:41;99674.47;;;12.40;47.37
18527;BME280;9393;42.158;24.748;2023-02-19T03:22:11;99687.44;;;12.14;48.08
18527;BME280;9393;42.158;24.748;2023-02-19T03:25:19;99692.25;;;12.54;47.12
18527;BME280;9393;42.158;24.748;2023-02-19T03:28:41;99694.34;;;12.33;47.42
18527;BME280;9393;42.158;24.748;2023-02-19T03:32:08;99679.09;;;12.46;46.93
18527;BME280;9393;42.158;24.748;2023-02-19T03:35:17;99682.97;;;12.25;47.56
18527;BME280;9393;42.158;24.748;2023-02-19T03:38:25;99680.88;;;12.10;47.83
18527;BME280;9393;42.158;24.748;2023-02-19T03:41:34;99686.88;;;12.38;47.39
18527;BME280;9393;42.158;24.748;2023-02-19T03:44:44;99693.53;;;12.33;47.31
18527;BME280;9393;42.158;24.748;2023-02-19T03:47:53;99696.38;;;12.39;46.85
18527;BME280;9393;42.158;24.748;2023-02-19T03:51:16;99697.38;;;12.82;46.01
18527;BME280;9393;42.158;24.748;2023-02-19T03:54:32;99695.53;;;12.74;46.10
18527;BME280;9393;42.158;24.748;2023-02-19T03:57:45;99705.88;;;13.01;45.44
18527;BME280;9393;42.158;24.748;2023-02-19T04:00:54;99698.75;;;13.11;45.33
18527;BME280;9393;42.158;24.748;2023-02-19T04:04:03;99696.03;;;13.21;44.99
18527;BME280;9393;42.158;24.748;2023-02-19T04:07:12;99704.84;;;13.12;45.17
18527;BME280;9393;42.158;24.748;2023-02-19T04:10:17;99713.28;;;13.06;45.50
18527;BME280;9393;42.158;24.748;2023-02-19T04:13:29;99720.38;;;13.13;45.24
18527;BME280;9393;42.158;24.748;2023-02-19T04:16:36;99733.91;;;13.27;44.77
18527;BME280;9393;42.158;24.748;2023-02-19T04:19:41;99733.03;;;13.44;44.56
18527;BME280;9393;42.158;24.748;2023-02-19T04:22:47;99743.75;;;13.33;44.74
18527;BME280;9393;42.158;24.748;2023-02-19T04:25:55;99755.69;;;13.27;44.87
18527;BME280;9393;42.158;24.748;2023-02-19T04:29:00;99759.97;;;13.36;45.02
18527;BME280;9393;42.158;24.748;2023-02-19T04:32:04;99759.00;;;13.11;45.50
18527;BME280;9393;42.158;24.748;2023-02-19T04:35:08;99764.88;;;13.13;45.31
18527;BME280;9393;42.158;24.748;2023-02-19T04:38:14;99757.56;;;12.99;45.69
18527;BME280;9393;42.158;24.748;2023-02-19T04:41:18;99760.22;;;13.07;45.50
18527;BME280;9393;42.158;24.748;2023-02-19T04:44:21;99767.44;;;13.05;45.34
18527;BME280;9393;42.158;24.748;2023-02-19T04:47:25;99762.25;;;13.13;45.42
18527;BME280;9393;42.158;24.748;2023-02-19T04:50:29;99766.91;;;13.20;45.09
18527;BME280;9393;42.158;24.748;2023-02-19T04:53:34;99775.69;;;12.93;45.73
18527;BME280;9393;42.158;24.748;2023-02-19T04:56:38;99777.00;;;12.79;45.90
18527;BME280;9393;42.158;24.748;2023-02-19T04:59:42;99791.53;;;13.09;45.46
18527;BME280;9393;42.158;24.748;2023-02-19T05:02:45;99788.81;;;13.19;45.20
18527;BME280;9393;42.158;24.748;2023-02-19T05:05:49;99789.13;;;13.15;45.07
18527;BME280;9393;42.158;24.748;2023-02-19T05:08:54;99786.41;;;13.07;45.28
18527;BME280;9393;42.158;24.748;2023-02-19T05:11:58;99782.56;;;13.11;45.17
18527;BME280;9393;42.158;24.748;2023-02-19T05:15:02;99777.97;;;13.13;44.91
18527;BME280;9393;42.158;24.748;2023-02-19T05:18:05;99775.06;;;13.17;44.98
18527;BME280;9393;42.158;24.748;2023-02-19T05:21:10;99791.44;;;13.01;45.29
18527;BME280;9393;42.158;24.748;2023-02-19T05:24:15;99774.56;;;13.13;45.02
18527;BME280;9393;42.158;24.748;2023-02-19T05:27:19;99770.94;;;13.14;44.86
18527;BME280;9393;42.158;24.748;2023-02-19T05:30:22;99771.94;;;13.13;44.92
18527;BME280;9393;42.158;24.748;2023-02-19T05:33:26;99774.16;;;13.26;44.92
18527;BME280;9393;42.158;24.748;2023-02-19T05:36:30;99783.22;;;13.13;44.98
18527;BME280;9393;42.158;24.748;2023-02-19T05:39:36;99788.03;;;13.44;44.38
18527;BME280;9393;42.158;24.748;2023-02-19T05:42:39;99803.13;;;13.50;44.11
18527;BME280;9393;42.158;24.748;2023-02-19T05:45:43;99800.78;;;13.64;43.86
18527;BME280;9393;42.158;24.748;2023-02-19T05:48:47;99800.47;;;13.68;43.93
18527;BME280;9393;42.158;24.748;2023-02-19T05:51:51;99796.38;;;13.73;43.60
18527;BME280;9393;42.158;24.748;2023-02-19T05:54:56;99806.53;;;13.68;43.81
18527;BME280;9393;42.158;24.748;2023-02-19T05:58:00;99806.03;;;13.98;43.19
18527;BME280;9393;42.158;24.748;2023-02-19T06:01:04;99814.53;;;13.92;43.14
18527;BME280;9393;42.158;24.748;2023-02-19T06:04:08;99820.94;;;13.98;43.06
18527;BME280;9393;42.158;24.748;2023-02-19T06:07:12;99826.13;;;13.90;43.32
18527;BME280;9393;42.158;24.748;2023-02-19T06:10:18;99830.34;;;14.08;43.23
18527;BME280;9393;42.158;24.748;2023-02-19T06:13:22;99841.91;;;14.32;42.65
18527;BME280;9393;42.158;24.748;2023-02-19T06:16:26;99841.81;;;14.41;42.31
18527;BME280;9393;42.158;24.748;2023-02-19T06:19:30;99847.59;;;14.53;42.29
18527;BME280;9393;42.158;24.748;2023-02-19T06:22:34;99849.88;;;14.48;42.49
18527;BME280;9393;42.158;24.748;2023-02-19T06:25:39;99854.91;;;14.91;41.51
18527;BME280;9393;42.158;24.748;2023-02-19T06:28:44;99857.72;;;15.22;40.70
18527;BME280;9393;42.158;24.748;2023-02-19T06:31:48;99860.22;;;15.56;39.91
18527;BME280;9393;42.158;24.748;2023-02-19T06:34:52;99865.78;;;15.69;39.56
18527;BME280;9393;42.158;24.748;2023-02-19T06:37:56;99857.88;;;15.77;39.34
18527;BME280;9393;42.158;24.748;2023-02-19T06:41:02;99865.03;;;16.15;38.69
18527;BME280;9393;42.158;24.748;2023-02-19T06:44:07;99872.59;;;16.18;38.53
18527;BME280;9393;42.158;24.748;2023-02-19T06:47:11;99870.81;;;16.50;38.09
18527;BME280;9393;42.158;24.748;2023-02-19T06:50:15;99870.28;;;16.93;37.37
18527;BME280;9393;42.158;24.748;2023-02-19T06:53:19;99873.22;;;16.98;37.11
18527;BME280;9393;42.158;24.748;2023-02-19T06:56:26;99868.38;;;17.10;36.85
18527;BME280;9393;42.158;24.748;2023-02-19T06:59:31;99885.56;;;17.21;36.82
18527;BME280;9393;42.158;24.748;2023-02-19T07:02:35;99874.09;;;16.91;37.02
18527;BME280;9393;42.158;24.748;2023-02-19T07:05:38;99878.31;;;17.23;36.84
18527;BME280;9393;42.158;24.748;2023-02-19T07:08:42;99877.94;;;17.48;36.66
18527;BME280;9393;42.158;24.748;2023-02-19T07:11:47;99877.81;;;17.42;36.69
18527;BME280;9393;42.158;24.748;2023-02-19T07:14:51;99881.78;;;17.23;37.00
18527;BME280;9393;42.158;24.748;2023-02-19T07:17:55;99878.53;;;17.58;36.37
18527;BME280;9393;42.158;24.748;2023-02-19T07:21:01;99886.78;;;17.78;35.66
18527;BME280;9393;42.158;24.748;2023-02-19T07:24:06;99884.91;;;18.01;35.55
18527;BME280;9393;42.158;24.748;2023-02-19T07:27:11;99890.63;;;18.05;35.63
18527;BME280;9393;42.158;24.748;2023-02-19T07:30:15;99876.78;;;18.32;34.85
18527;BME280;9393;42.158;24.748;2023-02-19T07:33:19;99885.28;;;18.57;34.55
18527;BME280;9393;42.158;24.748;2023-02-19T07:36:23;99873.78;;;18.50;34.93
18527;BME280;9393;42.158;24.748;2023-02-19T07:39:27;99883.25;;;18.59;35.21
18527;BME280;9393;42.158;24.748;2023-02-19T07:42:33;99866.59;;;18.44;34.95
18527;BME280;9393;42.158;24.748;2023-02-19T07:45:37;99872.97;;;18.35;35.26
18527;BME280;9393;42.158;24.748;2023-02-19T07:48:42;99882.06;;;18.32;35.25
18527;BME280;9393;42.158;24.748;2023-02-19T07:51:46;99870.50;;;18.48;35.21
18527;BME280;9393;42.158;24.748;2023-02-19T07:54:50;99883.56;;;18.20;35.58
18527;BME280;9393;42.158;24.748;2023-02-19T07:57:56;99878.78;;;18.59;35.22
18527;BME280;9393;42.158;24.748;2023-02-19T08:01:06;99877.50;;;18.70;34.81
18527;BME280;9393;42.158;24.748;2023-02-19T08:04:12;99878.94;;;19.08;34.36
18527;BME280;9393;42.158;24.748;2023-02-19T08:07:16;99876.94;;;19.53;34.11
18527;BME280;9393;42.158;24.748;2023-02-19T08:10:20;99873.69;;;19.51;33.96
18527;BME280;9393;42.158;24.748;2023-02-19T08:13:42;99879.19;;;19.56;33.97
18527;BME280;9393;42.158;24.748;2023-02-19T08:16:48;99873.41;;;19.67;33.63
18527;BME280;9393;42.158;24.748;2023-02-19T08:19:53;99863.53;;;19.33;34.27
18527;BME280;9393;42.158;24.748;2023-02-19T08:22:57;99871.22;;;19.49;34.37
18527;BME280;9393;42.158;24.748;2023-02-19T08:26:01;99861.84;;;19.75;34.20
18527;BME280;9393;42.158;24.748;2023-02-19T08:29:06;99862.13;;;19.86;33.75
18527;BME280;9393;42.158;24.748;2023-02-19T08:32:10;99854.25;;;20.27;33.61
18527;BME280;9393;42.158;24.748;2023-02-19T08:35:14;99848.13;;;20.27;33.51
18527;BME280;9393;42.158;24.748;2023-02-19T08:38:18;99840.03;;;20.41;32.81
18527;BME280;9393;42.158;24.748;2023-02-19T08:41:22;99841.25;;;20.39;33.01
18527;BME280;9393;42.158;24.748;2023-02-19T08:44:27;99836.19;;;20.44;33.25
18527;BME280;9393;42.158;24.748;2023-02-19T08:47:33;99846.28;;;20.68;32.86
18527;BME280;9393;42.158;24.748;2023-02-19T08:50:37;99840.88;;;20.48;33.17
18527;BME280;9393;42.158;24.748;2023-02-19T08:53:41;99841.84;;;21.01;32.65
18527;BME280;9393;42.158;24.748;2023-02-19T08:56:45;99844.97;;;21.25;32.48
18527;BME280;9393;42.158;24.748;2023-02-19T08:59:50;99835.59;;;21.48;32.54
18527;BME280;9393;42.158;24.748;2023-02-19T09:02:56;99833.97;;;21.54;32.28
18527;BME280;9393;42.158;24.748;2023-02-19T09:06:00;99830.91;;;21.57;32.28
18527;BME280;9393;42.158;24.748;2023-02-19T09:09:04;99820.88;;;21.52;32.42
18527;BME280;9393;42.158;24.748;2023-02-19T09:12:09;99811.69;;;21.48;32.59
18527;BME280;9393;42.158;24.748;2023-02-19T09:15:15;99820.47;;;21.75;32.27
18527;BME280;9393;42.158;24.748;2023-02-19T09:18:20;99823.03;;;22.14;32.14
18527;BME280;9393;42.158;24.748;2023-02-19T09:21:24;99808.28;;;22.25;32.28
18527;BME280;9393;42.158;24.748;2023-02-19T09:24:28;99810.25;;;22.43;31.85
18527;BME280;9393;42.158;24.748;2023-02-19T09:27:32;99793.16;;;22.70;31.03
18527;BME280;9393;42.158;24.748;2023-02-19T09:30:37;99805.34;;;22.46;31.25
18527;BME280;9393;42.158;24.748;2023-02-19T09:33:41;99791.47;;;22.44;31.07
18527;BME280;9393;42.158;24.748;2023-02-19T09:36:47;99780.25;;;22.74;31.02
18527;BME280;9393;42.158;24.748;2023-02-19T09:39:51;99789.84;;;22.81;31.07
18527;BME280;9393;42.158;24.748;2023-02-19T09:42:55;99791.09;;;22.79;31.17
18527;BME280;9393;42.158;24.748;2023-02-19T09:46:08;99780.91;;;22.62;31.37
18527;BME280;9393;42.158;24.748;2023-02-19T09:49:17;99769.69;;;22.67;31.07
18527;BME280;9393;42.158;24.748;2023-02-19T09:52:30;99763.06;;;22.76;30.10
18527;BME280;9393;42.158;24.748;2023-02-19T09:55:35;99764.66;;;22.46;30.55
18527;BME280;9393;42.158;24.748;2023-02-19T09:58:45;99756.38;;;22.67;30.81
18527;BME280;9393;42.158;24.748;2023-02-19T10:01:56;99736.09;;;22.66;31.08
18527;BME280;9393;42.158;24.748;2023-02-19T10:05:02;99742.97;;;23.11;30.40
18527;BME280;9393;42.158;24.748;2023-02-19T10:08:11;99731.00;;;23.21;30.23
18527;BME280;9393;42.158;24.748;2023-02-19T10:11:18;99728.50;;;23.26;29.62
18527;BME280;9393;42.158;24.748;2023-02-19T10:14:28;99731.44;;;22.93;30.04
18527;BME280;9393;42.158;24.748;2023-02-19T10:17:34;99729.09;;;23.28;30.05
18527;BME280;9393;42.158;24.748;2023-02-19T10:20:38;99722.91;;;23.34;29.98
18527;BME280;9393;42.158;24.748;2023-02-19T10:23:42;99719.84;;;23.55;29.79
18527;BME280;9393;42.158;24.748;2023-02-19T10:26:47;99722.75;;;23.72;29.37
18527;BME280;9393;42.158;24.748;2023-02-19T10:29:52;99719.78;;;23.61;29.24
18527;BME280;9393;42.158;24.748;2023-02-19T10:33:03;99717.97;;;23.37;29.58
18527;BME280;9393;42.158;24.748;2023-02-19T10:36:16;99708.75;;;23.76;28.80
18527;BME280;9393;42.158;24.748;2023-02-19T10:39:38;99701.03;;;24.23;29.00
18527;BME280;9393;42.158;24.748;2023-02-19T10:42:45;99693.25;;;24.21;28.82
18527;BME280;9393;42.158;24.748;2023-02-19T10:45:50;99687.72;;;24.34;29.12
18527;BME280;9393;42.158;24.748;2023-02-19T10:48:57;99685.06;;;24.34;28.99
18527;BME280;9393;42.158;24.748;2023-02-19T10:52:11;99672.91;;;24.08;28.31
18527;BME280;9393;42.158;24.748;2023-02-19T10:55:25;99667.50;;;23.67;28.82
18527;BME280;9393;42.158;24.748;2023-02-19T10:58:30;99659.06;;;23.70;28.67
18527;BME280;9393;42.158;24.748;2023-02-19T11:01:37;99652.81;;;23.76;29.09
18527;BME280;9393;42.158;24.748;2023-02-19T11:05:02;99648.09;;;23.78;28.32
18527;BME280;9393;42.158;24.748;2023-02-19T11:08:20;99643.06;;;23.88;28.25
18527;BME280;9393;42.158;24.748;2023-02-19T11:11:30;99639.28;;;23.78;28.68
18527;BME280;9393;42.158;24.748;2023-02-19T11:14:35;99636.16;;;24.10;28.28
18527;BME280;9393;42.158;24.748;2023-02-19T11:17:39;99630.56;;;24.19;27.64
18527;BME280;9393;42.158;24.748;2023-02-19T11:20:48;99636.34;;;23.97;28.00
18527;BME280;9393;42.158;24.748;2023-02-19T11:23:55;99620.81;;;24.12;28.37
18527;BME280;9393;42.158;24.748;2023-02-19T11:27:00;99633.97;;;24.07;27.79
18527;BME280;9393;42.158;24.748;2023-02-19T11:30:32;99634.72;;;24.14;27.14
18527;BME280;9393;42.158;24.748;2023-02-19T11:33:42;99621.38;;;24.14;27.26
18527;BME280;9393;42.158;24.748;2023-02-19T11:37:06;99616.09;;;24.38;27.77
18527;BME280;9393;42.158;24.748;2023-02-19T11:40:11;99604.75;;;24.01;27.67
18527;BME280;9393;42.158;24.748;2023-02-19T11:43:38;99600.69;;;24.17;27.60
18527;BME280;9393;42.158;24.748;2023-02-19T11:46:49;99596.66;;;23.48;28.37
18527;BME280;9393;42.158;24.748;2023-02-19T11:50:04;99591.16;;;24.21;27.39
18527;BME280;9393;42.158;24.748;2023-02-19T11:53:20;99582.28;;;24.27;27.92
18527;BME280;9393;42.158;24.748;2023-02-19T11:56:32;99576.13;;;24.26;28.07
18527;BME280;9393;42.158;24.748;2023-02-19T11:59:43;99578.25;;;24.47;27.36
18527;BME280;9393;42.158;24.748;2023-02-19T12:03:09;99573.25;;;24.62;27.65
18527;BME280;9393;42.158;24.748;2023-02-19T12:06:24;99571.06;;;24.83;27.42
18527;BME280;9393;42.158;24.748;2023-02-19T12:09:48;99562.03;;;24.95;26.91
18527;BME280;9393;42.158;24.748;2023-02-19T12:13:01;99568.00;;;25.14;26.66
18527;BME280;9393;42.158;24.748;2023-02-19T12:16:16;99561.91;;;25.02;26.78
18527;BME280;9393;42.158;24.748;2023-02-19T12:19:43;99543.78;;;25.16;27.03
18527;BME280;9393;42.158;24.748;2023-02-19T12:23:17;99549.78;;;25.23;26.21
18527;BME280;9393;42.158;24.748;2023-02-19T12:26:29;99541.91;;;25.16;26.62
18527;BME280;9393;42.158;24.748;2023-02-19T12:29:48;99538.66;;;25.14;26.98
18527;BME280;9393;42.158;24.748;2023-02-19T12:36:36;99521.88;;;25.02;27.30
18527;BME280;9393;42.158;24.748;2023-02-19T12:39:46;99516.50;;;25.42;27.19
18527;BME280;9393;42.158;24.748;2023-02-19T12:43:04;99500.97;;;25.39;26.83
18527;BME280;9393;42.158;24.748;2023-02-19T12:46:13;99506.00;;;24.95;27.38
18527;BME280;9393;42.158;24.748;2023-02-19T12:49:26;99497.09;;;25.18;27.08
18527;BME280;9393;42.158;24.748;2023-02-19T12:52:36;99496.09;;;25.07;27.14
18527;BME280;9393;42.158;24.748;2023-02-19T12:55:45;99490.47;;;25.21;26.69
18527;BME280;9393;42.158;24.748;2023-02-19T12:58:53;99477.22;;;25.37;27.10
18527;BME280;9393;42.158;24.748;2023-02-19T13:02:03;99480.84;;;25.48;26.39
18527;BME280;9393;42.158;24.748;2023-02-19T13:05:21;99465.22;;;25.40;26.56
18527;BME280;9393;42.158;24.748;2023-02-19T13:08:31;99470.38;;;25.30;26.78
18527;BME280;9393;42.158;24.748;2023-02-19T13:11:42;99457.78;;;25.13;26.79
18527;BME280;9393;42.158;24.748;2023-02-19T13:14:53;99461.38;;;24.56;27.38
18527;BME280;9393;42.158;24.748;2023-02-19T13:17:58;99450.78;;;24.96;27.59
18527;BME280;9393;42.158;24.748;2023-02-19T13:21:04;99447.94;;;24.86;27.70
18527;BME280;9393;42.158;24.748;2023-02-19T13:24:11;99445.88;;;25.04;27.61
18527;BME280;9393;42.158;24.748;2023-02-19T13:27:36;99442.41;;;25.04;27.55
18527;BME280;9393;42.158;24.748;2023-02-19T13:31:06;99433.75;;;25.13;27.18
18527;BME280;9393;42.158;24.748;2023-02-19T13:34:31;99425.38;;;24.93;27.24
18527;BME280;9393;42.158;24.748;2023-02-19T13:37:40;99421.81;;;24.88;27.78
18527;BME280;9393;42.158;24.748;2023-02-19T13:40:52;99412.28;;;24.80;27.28
18527;BME280;9393;42.158;24.748;2023-02-19T13:44:03;99413.59;;;24.78;27.29
18527;BME280;9393;42.158;24.748;2023-02-19T13:47:48;99397.66;;;24.94;27.10
18527;BME280;9393;42.158;24.748;2023-02-19T13:54:30;99395.88;;;24.72;27.68
18527;BME280;9393;42.158;24.748;2023-02-19T13:57:35;99389.25;;;24.74;27.07
18527;BME280;9393;42.158;24.748;2023-02-19T14:00:48;99384.47;;;24.76;27.43
18527;BME280;9393;42.158;24.748;2023-02-19T14:04:06;99379.72;;;24.78;26.79
18527;BME280;9393;42.158;24.748;2023-02-19T14:10:52;99366.88;;;24.75;27.01
18527;BME280;9393;42.158;24.748;2023-02-19T14:13:59;99366.34;;;24.90;27.25
18527;BME280;9393;42.158;24.748;2023-02-19T14:17:27;99362.06;;;24.49;27.08
18527;BME280;9393;42.158;24.748;2023-02-19T14:20:41;99350.44;;;24.55;26.84
18527;BME280;9393;42.158;24.748;2023-02-19T14:23:51;99352.66;;;24.58;26.89
18527;BME280;9393;42.158;24.748;2023-02-19T14:26:56;99353.38;;;24.53;27.08
18527;BME280;9393;42.158;24.748;2023-02-19T14:30:00;99355.69;;;24.50;27.36
18527;BME280;9393;42.158;24.748;2023-02-19T14:33:09;99351.19;;;24.39;27.57
18527;BME280;9393;42.158;24.748;2023-02-19T14:36:45;99345.31;;;24.37;27.74
18527;BME280;9393;42.158;24.748;2023-02-19T14:39:51;99340.34;;;24.05;27.87
18527;BME280;9393;42.158;24.748;2023-02-19T14:42:58;99338.50;;;23.94;28.15
18527;BME280;9393;42.158;24.748;2023-02-19T14:46:06;99332.81;;;23.91;27.75
18527;BME280;9393;42.158;24.748;2023-02-19T14:49:14;99323.34;;;23.60;28.30
18527;BME280;9393;42.158;24.748;2023-02-19T14:52:24;99324.03;;;23.67;27.99
18527;BME280;9393;42.158;24.748;2023-02-19T14:55:31;99318.47;;;23.57;28.28
18527;BME280;9393;42.158;24.748;2023-02-19T14:58:36;99310.59;;;23.62;28.24
18527;BME280;9393;42.158;24.748;2023-02-19T15:01:41;99313.72;;;23.59;28.29
18527;BME280;9393;42.158;24.748;2023-02-19T15:04:46;99309.31;;;23.53;28.60
18527;BME280;9393;42.158;24.748;2023-02-19T15:07:53;99309.44;;;23.46;28.50
18527;BME280;9393;42.158;24.748;2023-02-19T15:10:58;99304.88;;;23.35;28.69
18527;BME280;9393;42.158;24.748;2023-02-19T15:14:05;99297.28;;;22.97;28.90
18527;BME280;9393;42.158;24.748;2023-02-19T15:17:12;99296.97;;;22.76;28.98
18527;BME280;9393;42.158;24.748;2023-02-19T15:20:20;99289.50;;;22.54;29.23
18527;BME280;9393;42.158;24.748;2023-02-19T15:23:29;99295.28;;;22.15;29.87
18527;BME280;9393;42.158;24.748;2023-02-19T15:26:36;99302.72;;;21.88;30.28
18527;BME280;9393;42.158;24.748;2023-02-19T15:29:44;99299.22;;;21.70;30.52
18527;BME280;9393;42.158;24.748;2023-02-19T15:32:53;99297.28;;;21.58;30.49
18527;BME280;9393;42.158;24.748;2023-02-19T15:35:58;99295.88;;;21.56;30.81
18527;BME280;9393;42.158;24.748;2023-02-19T15:39:05;99299.78;;;21.53;30.88
18527;BME280;9393;42.158;24.748;2023-02-19T15:42:13;99296.16;;;21.48;30.79
18527;BME280;9393;42.158;24.748;2023-02-19T15:45:21;99287.22;;;21.42;30.89
18527;BME280;9393;42.158;24.748;2023-02-19T15:48:33;99281.66;;;21.26;31.19
18527;BME280;9393;42.158;24.748;2023-02-19T15:51:41;99283.97;;;21.15;30.99
18527;BME280;9393;42.158;24.748;2023-02-19T15:54:53;99290.38;;;21.01;30.92
18527;BME280;9393;42.158;24.748;2023-02-19T15:58:03;99297.69;;;21.12;31.02
18527;BME280;9393;42.158;24.748;2023-02-19T16:01:14;99295.28;;;20.98;31.01
18527;BME280;9393;42.158;24.748;2023-02-19T16:04:19;99300.00;;;20.96;31.12
18527;BME280;9393;42.158;24.748;2023-02-19T16:07:25;99303.03;;;20.99;31.29
18527;BME280;9393;42.158;24.748;2023-02-19T16:10:31;99303.03;;;20.99;31.29
18527;BME280;9393;42.158;24.748;2023-02-19T16:13:35;99300.59;;;20.98;31.60
18527;BME280;9393;42.158;24.748;2023-02-19T16:16:40;99292.94;;;20.83;31.75
18527;BME280;9393;42.158;24.748;2023-02-19T16:19:47;99293.16;;;20.82;31.70
18527;BME280;9393;42.158;24.748;2023-02-19T16:22:58;99289.94;;;20.73;31.80
18527;BME280;9393;42.158;24.748;2023-02-19T16:26:04;99298.28;;;20.77;31.81
18527;BME280;9393;42.158;24.748;2023-02-19T16:29:16;99297.88;;;20.73;32.06
18527;BME280;9393;42.158;24.748;2023-02-19T16:32:21;99294.88;;;20.63;32.31
18527;BME280;9393;42.158;24.748;2023-02-19T16:35:34;99305.31;;;20.58;32.28
18527;BME280;9393;42.158;24.748;2023-02-19T16:38:38;99290.88;;;20.54;32.15
18527;BME280;9393;42.158;24.748;2023-02-19T16:42:17;99293.34;;;20.49;32.68
18527;BME280;9393;42.158;24.748;2023-02-19T16:45:22;99291.88;;;20.53;32.48
18527;BME280;9393;42.158;24.748;2023-02-19T16:48:28;99300.84;;;20.52;32.71